Time;durP1;ratioP1;P1;durP2;ratioP2;P2;SDS_P1;SDS_P2;PMS_P1;PMS_P2;Temp;Humidity;BMP_temperature;BMP_pressure;BME280_temperature;BME280_humidity;BME280_pressure;Samples;Min_cycle;Max_cycle;Signal;HPM_P1;HPM_P2
2023/12/17 04:01:28;;;;;;;4.43;3.38;;;25.00;25.80;;;;;;5578031;22;45727;-86
2023/12/17 04:04:07;;;;;;;4.80;3.45;;;25.00;25.90;;;;;;4991510;28;45188;-81
2023/12/17 04:06:34;;;;;;;4.63;3.60;;;25.00;25.80;;;;;;5014557;28;45150;-80
2023/12/17 04:09:03;;;;;;;6.10;3.40;;;25.00;25.80;;;;;;5017531;28;45166;-89
2023/12/17 04:11:30;;;;;;;4.00;3.40;;;25.00;25.80;;;;;;5025227;28;45105;-85
2023/12/17 04:13:56;;;;;;;5.20;3.83;;;25.00;25.80;;;;;;5001410;28;46411;-88
2023/12/17 04:16:23;;;;;;;4.75;3.35;;;25.00;25.80;;;;;;4987051;28;45273;-87
2023/12/17 04:18:52;;;;;;;4.33;3.53;;;25.00;25.70;;;;;;5007838;28;45232;-77
2023/12/17 04:21:18;;;;;;;4.68;3.42;;;25.00;25.80;;;;;;4984453;28;45570;-80
2023/12/17 04:23:44;;;;;;;4.80;3.37;;;24.90;25.70;;;;;;5003845;28;46656;-82
2023/12/17 04:26:13;;;;;;;4.95;3.58;;;25.00;25.80;;;;;;4984616;28;44953;-78
2023/12/17 04:28:39;;;;;;;4.38;3.30;;;24.90;25.70;;;;;;4983309;28;45343;-84
2023/12/17 04:31:06;;;;;;;4.23;3.40;;;25.00;25.70;;;;;;4984598;28;45771;-78
2023/12/17 04:33:32;;;;;;;4.35;3.40;;;24.90;25.70;;;;;;5009448;28;47475;-83
2023/12/17 04:35:58;;;;;;;4.75;3.70;;;24.90;25.70;;;;;;4987275;28;45106;-78
2023/12/17 04:38:25;;;;;;;4.45;3.50;;;24.90;25.70;;;;;;4990160;28;45656;-78
2023/12/17 04:40:50;;;;;;;5.05;3.55;;;25.00;25.70;;;;;;5022006;28;45473;-80
2023/12/17 04:43:16;;;;;;;4.07;3.43;;;24.90;25.70;;;;;;4974641;28;45202;-81
2023/12/17 04:45:42;;;;;;;4.87;3.73;;;24.90;25.70;;;;;;4988602;28;45153;-81
2023/12/17 04:48:08;;;;;;;4.77;3.47;;;24.90;25.70;;;;;;4984039;28;45404;-83
2023/12/17 04:50:34;;;;;;;4.90;3.45;;;24.90;25.70;;;;;;4985450;28;45194;-80
2023/12/17 04:53:00;;;;;;;4.60;3.33;;;24.90;25.70;;;;;;5016187;28;46067;-84
2023/12/17 04:55:26;;;;;;;4.13;3.40;;;24.90;25.70;;;;;;4987452;28;45607;-80
2023/12/17 04:57:52;;;;;;;4.33;3.30;;;24.90;25.70;;;;;;5005170;28;45224;-80
2023/12/17 05:00:18;;;;;;;4.37;3.60;;;24.90;25.70;;;;;;5001392;28;45560;-83
2023/12/17 05:02:46;;;;;;;4.70;3.70;;;24.80;25.70;;;;;;5001656;28;46491;-82
2023/12/17 05:05:12;;;;;;;3.97;3.35;;;24.80;25.70;;;;;;4984329;28;45531;-94
2023/12/17 05:07:39;;;;;;;5.22;3.50;;;24.90;25.70;;;;;;4980068;28;45244;-82
2023/12/17 05:10:07;;;;;;;4.65;3.30;;;24.80;25.60;;;;;;5018168;28;45242;-87
2023/12/17 05:12:32;;;;;;;6.03;4.07;;;24.90;25.70;;;;;;4988959;28;46792;-84
2023/12/17 05:14:58;;;;;;;5.10;3.80;;;24.80;25.60;;;;;;5022850;28;45312;-85
2023/12/17 05:17:25;;;;;;;4.47;3.50;;;24.80;25.60;;;;;;4986529;28;45194;-79
2023/12/17 05:19:51;;;;;;;4.80;3.53;;;24.80;25.60;;;;;;5022142;28;45032;-79
2023/12/17 05:22:20;;;;;;;5.17;3.70;;;24.80;25.60;;;;;;4999070;28;47417;-88
2023/12/17 05:24:48;;;;;;;4.13;3.25;;;24.80;25.60;;;;;;5019762;28;45664;-78
2023/12/17 05:27:15;;;;;;;4.05;3.58;;;24.80;25.60;;;;;;5015803;28;44757;-83
2023/12/17 05:29:43;;;;;;;5.30;3.67;;;24.80;25.60;;;;;;5020047;28;45331;-82
2023/12/17 05:32:10;;;;;;;4.82;3.42;;;24.80;25.60;;;;;;4989752;28;44980;-80
2023/12/17 05:34:36;;;;;;;4.85;3.78;;;24.80;25.60;;;;;;5001407;28;45280;-84
2023/12/17 05:37:02;;;;;;;4.45;3.50;;;24.80;25.60;;;;;;5017920;28;45288;-80
2023/12/17 05:39:28;;;;;;;4.40;3.60;;;24.80;25.60;;;;;;5019232;28;45399;-83
2023/12/17 05:41:55;;;;;;;4.38;3.60;;;24.70;25.60;;;;;;4995739;28;45519;-79
2023/12/17 05:44:22;;;;;;;4.88;3.55;;;24.70;25.60;;;;;;5018732;28;45135;-78
2023/12/17 05:46:48;;;;;;;4.10;3.30;;;24.80;25.60;;;;;;4998616;28;45486;-85
2023/12/17 05:49:13;;;;;;;4.68;3.30;;;24.70;25.60;;;;;;5019198;28;45491;-80
2023/12/17 05:51:43;;;;;;;4.47;3.38;;;24.70;25.60;;;;;;4998282;28;46306;-81
2023/12/17 05:54:11;;;;;;;3.93;3.40;;;24.70;25.60;;;;;;5003092;28;45206;-81
2023/12/17 05:56:41;;;;;;;3.80;3.10;;;24.70;25.60;;;;;;5012729;28;45591;-81
2023/12/17 05:59:07;;;;;;;4.40;3.30;;;24.70;25.60;;;;;;5003403;28;45539;-81
2023/12/17 06:01:34;;;;;;;4.23;3.40;;;24.70;25.60;;;;;;4994874;28;45368;-78
2023/12/17 06:04:00;;;;;;;3.95;3.22;;;24.70;25.60;;;;;;5001798;28;45218;-80
2023/12/17 06:06:26;;;;;;;3.90;3.17;;;24.70;25.60;;;;;;5013145;28;45528;-83
2023/12/17 06:08:55;;;;;;;4.25;3.40;;;24.70;25.50;;;;;;5034589;28;45405;-81
2023/12/17 06:11:39;;;;;;;3.80;3.35;;;24.70;25.50;;;;;;5008197;28;67174;-80
2023/12/17 06:14:07;;;;;;;4.73;3.20;;;24.60;25.50;;;;;;4971697;28;45394;-79
2023/12/17 06:16:33;;;;;;;3.88;3.20;;;24.60;25.50;;;;;;5007940;28;45174;-79
2023/12/17 06:18:59;;;;;;;4.25;3.38;;;24.70;25.60;;;;;;5018481;28;45182;-81
2023/12/17 06:21:28;;;;;;;4.83;3.70;;;24.60;25.50;;;;;;5034781;28;46383;-81
2023/12/17 06:23:57;;;;;;;3.85;2.95;;;24.60;25.60;;;;;;5003633;28;45323;-82
2023/12/17 06:26:26;;;;;;;4.80;3.60;;;24.60;25.50;;;;;;4998407;28;45042;-78
2023/12/17 06:28:52;;;;;;;5.50;3.55;;;24.60;25.60;;;;;;5001690;28;44843;-77
2023/12/17 06:31:18;;;;;;;4.55;3.38;;;24.60;25.50;;;;;;5016083;28;45519;-84
2023/12/17 06:33:45;;;;;;;4.22;3.47;;;24.60;25.50;;;;;;5003525;28;44697;-81
2023/12/17 06:36:11;;;;;;;4.47;3.50;;;24.50;25.50;;;;;;5001322;28;45225;-85
2023/12/17 06:38:39;;;;;;;4.85;3.53;;;24.50;25.50;;;;;;5014055;28;45187;-82
2023/12/17 06:41:06;;;;;;;4.20;3.58;;;24.50;25.50;;;;;;5012525;28;45399;-86
2023/12/17 06:43:32;;;;;;;4.60;3.15;;;24.50;25.50;;;;;;5018604;28;45343;-80
2023/12/17 06:45:58;;;;;;;4.78;3.60;;;24.60;25.50;;;;;;5014705;28;45159;-83
2023/12/17 06:48:24;;;;;;;4.03;3.10;;;24.50;25.50;;;;;;4987341;28;45267;-80
2023/12/17 06:50:50;;;;;;;4.03;3.17;;;24.50;25.50;;;;;;5018778;28;45591;-81
2023/12/17 06:53:17;;;;;;;4.55;3.33;;;24.50;25.50;;;;;;5019760;28;45139;-84
2023/12/17 06:55:46;;;;;;;4.55;3.33;;;24.50;25.50;;;;;;4998390;28;44630;-79
2023/12/17 06:58:12;;;;;;;4.63;3.35;;;24.50;25.50;;;;;;4967598;28;45446;-84
2023/12/17 07:00:38;;;;;;;4.47;3.40;;;24.50;25.50;;;;;;4994551;28;46699;-82
2023/12/17 07:03:04;;;;;;;5.03;3.73;;;24.50;25.50;;;;;;4996041;28;44843;-80
2023/12/17 07:05:30;;;;;;;5.18;3.50;;;24.50;25.50;;;;;;4995994;28;45025;-82
2023/12/17 07:07:56;;;;;;;3.90;3.25;;;24.50;25.50;;;;;;5013526;28;45321;-80
2023/12/17 07:10:22;;;;;;;4.20;3.40;;;24.40;25.50;;;;;;5009276;28;45531;-80
2023/12/17 07:12:49;;;;;;;4.10;3.30;;;24.50;25.50;;;;;;5002731;28;45360;-81
2023/12/17 07:15:15;;;;;;;4.13;3.63;;;24.40;25.50;;;;;;4988312;28;45218;-80
2023/12/17 07:18:06;;;;;;;4.32;3.33;;;24.40;25.40;;;;;;4983735;28;45201;-79
2023/12/17 07:20:32;;;;;;;4.60;3.50;;;24.40;25.50;;;;;;5005376;28;45972;-82
2023/12/17 07:22:59;;;;;;;3.97;3.05;;;24.40;25.50;;;;;;5018160;28;45490;-86
2023/12/17 07:25:26;;;;;;;4.07;3.47;;;24.40;25.50;;;;;;4970625;28;46308;-82
2023/12/17 07:27:53;;;;;;;3.70;3.30;;;24.40;25.50;;;;;;4995472;28;45160;-83
2023/12/17 07:30:19;;;;;;;4.40;3.30;;;24.40;25.50;;;;;;5012629;28;45299;-92
2023/12/17 07:32:45;;;;;;;5.15;3.50;;;24.40;25.50;;;;;;4966661;28;45231;-80
2023/12/17 07:35:11;;;;;;;4.30;3.40;;;24.40;25.50;;;;;;5012507;28;45350;-91
2023/12/17 07:37:37;;;;;;;4.87;3.33;;;24.40;25.50;;;;;;4985598;28;45350;-80
2023/12/17 07:40:04;;;;;;;4.15;3.60;;;24.40;25.50;;;;;;4996683;28;46003;-88
2023/12/17 07:42:30;;;;;;;4.70;3.40;;;24.40;25.50;;;;;;5015985;28;45047;-78
2023/12/17 07:44:56;;;;;;;5.13;3.50;;;24.30;25.50;;;;;;5001503;28;45037;-82
2023/12/17 07:47:22;;;;;;;3.78;3.20;;;24.30;25.40;;;;;;5011450;28;45534;-82
2023/12/17 07:49:48;;;;;;;5.57;3.45;;;24.40;25.50;;;;;;5008315;28;46338;-79
2023/12/17 07:52:15;;;;;;;4.50;3.33;;;24.30;25.40;;;;;;5005491;28;45375;-81
2023/12/17 07:54:42;;;;;;;4.43;3.40;;;24.30;25.50;;;;;;5018268;28;44662;-84
2023/12/17 07:57:08;;;;;;;4.95;3.28;;;24.30;25.40;;;;;;5000521;28;45421;-83
2023/12/17 07:59:34;;;;;;;4.68;3.28;;;24.30;25.50;;;;;;5022900;28;45465;-85
2023/12/17 08:02:00;;;;;;;4.93;3.47;;;24.30;25.40;;;;;;5012163;28;45485;-85
2023/12/17 08:04:26;;;;;;;3.90;3.00;;;24.30;25.50;;;;;;5016002;28;45529;-82
2023/12/17 08:06:53;;;;;;;6.30;3.55;;;24.30;25.50;;;;;;5013379;28;46205;-79
2023/12/17 08:09:19;;;;;;;5.00;3.90;;;24.30;25.50;;;;;;4986964;28;47041;-79
2023/12/17 08:11:45;;;;;;;4.85;3.47;;;24.20;25.40;;;;;;5006866;28;45343;-78
2023/12/17 08:14:11;;;;;;;4.20;3.28;;;24.20;25.50;;;;;;5009533;28;45415;-79
2023/12/17 08:16:37;;;;;;;4.32;3.42;;;24.20;25.50;;;;;;4998460;28;44757;-79
2023/12/17 08:19:03;;;;;;;4.00;3.20;;;24.20;25.40;;;;;;5003619;28;45250;-79
2023/12/17 08:21:28;;;;;;;4.10;3.40;;;24.20;25.50;;;;;;5016880;28;44757;-87
2023/12/17 08:23:56;;;;;;;4.03;3.30;;;24.20;25.50;;;;;;5003406;28;45541;-83
2023/12/17 08:26:22;;;;;;;4.10;3.15;;;24.20;25.50;;;;;;4982599;28;45701;-79
2023/12/17 08:28:48;;;;;;;4.13;3.30;;;24.20;25.50;;;;;;4991870;28;46788;-79
2023/12/17 08:31:14;;;;;;;4.78;3.40;;;24.20;25.50;;;;;;5015569;28;45111;-80
2023/12/17 08:33:40;;;;;;;5.13;3.30;;;24.20;25.50;;;;;;4987246;28;45275;-84
2023/12/17 08:36:08;;;;;;;4.13;3.47;;;24.20;25.50;;;;;;5021266;28;45221;-79
2023/12/17 08:38:34;;;;;;;4.72;3.20;;;24.10;25.40;;;;;;5001495;28;46200;-80
2023/12/17 08:41:00;;;;;;;3.70;3.22;;;24.10;25.50;;;;;;5014631;28;44649;-82
2023/12/17 08:43:30;;;;;;;4.80;3.35;;;24.10;25.50;;;;;;5021653;28;45713;-82
2023/12/17 08:46:00;;;;;;;4.78;3.20;;;24.10;25.50;;;;;;5016361;28;45540;-85
2023/12/17 08:48:26;;;;;;;3.87;3.33;;;24.10;25.50;;;;;;4998195;28;46262;-81
2023/12/17 08:50:51;;;;;;;4.43;3.38;;;24.10;25.50;;;;;;4989008;28;45455;-78
2023/12/17 08:53:22;;;;;;;4.20;3.30;;;24.10;26.00;;;;;;5003730;28;45435;-85
2023/12/17 08:55:48;;;;;;;3.90;3.10;;;24.10;25.50;;;;;;5011653;28;45518;-88
2023/12/17 08:58:14;;;;;;;3.75;3.03;;;24.10;25.50;;;;;;4998760;28;45588;-79
2023/12/17 09:00:40;;;;;;;4.22;3.22;;;24.10;25.50;;;;;;5000538;28;44866;-90
2023/12/17 09:03:06;;;;;;;3.88;3.05;;;24.10;25.50;;;;;;5018201;28;45017;-80
2023/12/17 09:05:33;;;;;;;4.13;3.20;;;24.10;25.50;;;;;;4999988;28;45485;-84
2023/12/17 09:07:59;;;;;;;3.47;2.90;;;24.10;25.60;;;;;;4995889;28;45876;-82
2023/12/17 09:10:25;;;;;;;3.83;3.22;;;24.10;25.60;;;;;;5019242;28;45275;-78
2023/12/17 09:12:51;;;;;;;4.27;3.20;;;24.00;25.50;;;;;;5018340;28;44951;-80
2023/12/17 09:15:17;;;;;;;4.87;3.40;;;24.10;25.60;;;;;;5016204;28;45158;-81
2023/12/17 09:17:43;;;;;;;4.10;3.27;;;24.00;25.60;;;;;;4964681;28;45756;-87
2023/12/17 09:20:10;;;;;;;3.97;3.50;;;24.00;25.60;;;;;;5017844;28;45313;-87
2023/12/17 09:22:36;;;;;;;4.18;3.38;;;24.00;25.60;;;;;;5018940;28;45463;-83
2023/12/17 09:25:03;;;;;;;5.00;3.42;;;24.00;25.60;;;;;;4998482;28;44945;-85
2023/12/17 09:27:29;;;;;;;4.97;3.25;;;24.00;25.60;;;;;;4994686;28;45545;-85
2023/12/17 09:29:55;;;;;;;3.83;3.33;;;24.00;25.60;;;;;;5015808;28;45622;-85
2023/12/17 09:32:21;;;;;;;4.17;3.30;;;24.00;25.60;;;;;;4977175;28;45274;-79
2023/12/17 09:34:48;;;;;;;3.30;3.00;;;24.00;25.60;;;;;;5000129;28;45412;-81
2023/12/17 09:37:13;;;;;;;4.50;3.30;;;24.00;25.60;;;;;;5014059;28;45622;-80
2023/12/17 09:39:41;;;;;;;4.13;3.42;;;24.00;25.60;;;;;;5017790;28;45225;-79
2023/12/17 09:42:07;;;;;;;4.40;3.53;;;24.00;25.70;;;;;;5011429;28;46465;-78
2023/12/17 09:44:34;;;;;;;4.32;3.55;;;23.90;25.60;;;;;;5010751;28;45678;-78
2023/12/17 09:46:59;;;;;;;4.63;3.33;;;23.90;25.60;;;;;;4981842;28;45790;-83
2023/12/17 09:49:25;;;;;;;4.00;3.10;;;23.90;25.70;;;;;;5001592;28;45165;-79
2023/12/17 09:51:57;;;;;;;4.57;3.17;;;23.90;25.60;;;;;;4999078;28;45358;-78
2023/12/17 09:54:23;;;;;;;3.72;3.33;;;23.90;25.70;;;;;;4985611;28;45378;-81
2023/12/17 09:56:49;;;;;;;3.83;3.30;;;23.90;25.70;;;;;;5013296;28;46336;-82
2023/12/17 09:59:15;;;;;;;3.67;3.15;;;23.90;25.70;;;;;;4991648;28;45507;-86
2023/12/17 10:01:41;;;;;;;4.47;3.10;;;23.90;25.70;;;;;;5002675;28;45439;-82
2023/12/17 10:04:07;;;;;;;3.90;3.10;;;23.90;25.80;;;;;;5009391;28;45175;-87
2023/12/17 10:06:33;;;;;;;3.80;3.40;;;23.90;25.70;;;;;;5009473;28;45507;-84
2023/12/17 10:09:00;;;;;;;3.55;3.20;;;23.90;25.80;;;;;;5013263;28;45164;-87
2023/12/17 10:11:27;;;;;;;3.40;3.10;;;23.90;25.80;;;;;;4994007;28;44830;-86
2023/12/17 10:13:55;;;;;;;3.40;3.10;;;23.90;25.80;;;;;;5013441;28;45292;-83
2023/12/17 10:42:14;;;;;;;3.03;2.72;;;23.80;25.90;;;;;;5594462;22;45824;-80
2023/12/17 10:44:40;;;;;;;3.00;2.70;;;23.80;25.90;;;;;;4973966;28;45258;-80
2023/12/17 10:47:05;;;;;;;3.83;3.23;;;23.80;25.90;;;;;;4973421;28;45343;-81
2023/12/17 10:49:31;;;;;;;3.38;2.75;;;23.80;25.90;;;;;;4975402;28;45355;-81
2023/12/17 10:51:57;;;;;;;3.28;2.85;;;23.80;25.90;;;;;;4961293;28;45383;-79
2023/12/17 10:54:22;;;;;;;3.20;2.75;;;23.80;26.00;;;;;;4946424;28;45330;-80
2023/12/17 10:56:50;;;;;;;3.72;3.00;;;23.80;26.00;;;;;;4964284;28;45267;-81
2023/12/17 10:59:24;;;;;;;3.60;2.60;;;23.80;26.00;;;;;;4940513;28;45053;-81
2023/12/17 11:01:50;;;;;;;3.45;2.80;;;23.80;26.00;;;;;;4990934;28;45798;-80
2023/12/17 11:04:16;;;;;;;3.80;2.85;;;23.70;26.00;;;;;;4962749;28;45272;-82
2023/12/17 11:06:42;;;;;;;3.25;2.50;;;23.70;26.00;;;;;;4994251;28;45831;-81
2023/12/17 11:09:08;;;;;;;2.85;2.55;;;23.70;26.00;;;;;;4962037;28;45147;-80
2023/12/17 11:11:35;;;;;;;4.60;2.80;;;23.70;26.00;;;;;;4968823;28;45245;-80
2023/12/17 11:14:00;;;;;;;3.83;2.80;;;23.70;26.00;;;;;;4993419;28;44976;-80
2023/12/17 11:16:28;;;;;;;3.47;2.77;;;23.70;26.00;;;;;;4968324;28;46533;-79
2023/12/17 11:18:54;;;;;;;3.90;2.90;;;23.70;26.00;;;;;;4977310;28;44600;-81
2023/12/17 11:21:20;;;;;;;3.55;2.85;;;23.80;26.10;;;;;;4953336;28;45187;-80
2023/12/17 11:23:48;;;;;;;3.70;2.72;;;23.70;26.10;;;;;;4985078;28;45515;-80
2023/12/17 11:26:17;;;;;;;3.33;2.78;;;23.70;26.10;;;;;;4985080;28;45933;-80
2023/12/17 11:28:46;;;;;;;3.03;2.50;;;23.70;26.10;;;;;;4980863;28;45520;-79
2023/12/17 11:31:12;;;;;;;3.25;2.80;;;23.70;26.10;;;;;;4947105;28;45211;-79
2023/12/17 11:33:39;;;;;;;2.92;2.38;;;23.70;26.10;;;;;;4983541;28;45558;-79
2023/12/17 11:36:07;;;;;;;2.97;2.45;;;23.70;26.10;;;;;;4950134;28;45471;-80
2023/12/17 11:38:36;;;;;;;2.90;2.38;;;23.70;26.20;;;;;;4987012;28;44800;-79
2023/12/17 11:41:06;;;;;;;3.10;2.50;;;23.70;26.20;;;;;;4970706;28;44989;-80
2023/12/17 11:43:32;;;;;;;3.22;2.58;;;23.70;26.20;;;;;;4987075;28;45463;-79
2023/12/17 11:45:57;;;;;;;2.90;2.23;;;23.70;26.20;;;;;;4980090;28;46810;-80
2023/12/17 11:48:23;;;;;;;2.70;2.30;;;23.70;26.20;;;;;;4948793;28;45591;-80
2023/12/17 11:50:56;;;;;;;3.53;2.65;;;23.70;26.20;;;;;;4946548;28;45140;-80
2023/12/17 11:53:23;;;;;;;3.47;2.47;;;23.70;26.20;;;;;;4985147;28;45058;-79
2023/12/17 11:55:52;;;;;;;2.63;2.22;;;23.60;26.20;;;;;;4978942;28;46874;-80
2023/12/17 11:58:19;;;;;;;3.53;2.70;;;23.70;26.30;;;;;;4967553;28;45047;-80
2023/12/17 12:01:22;;;;;;;3.05;2.50;;;23.60;26.20;;;;;;4976793;28;45249;-80
2023/12/17 12:03:48;;;;;;;3.60;2.55;;;23.70;26.30;;;;;;4981227;28;45510;-79
2023/12/17 12:06:14;;;;;;;2.97;2.63;;;23.60;26.30;;;;;;4967948;28;45236;-81
2023/12/17 12:08:50;;;;;;;2.60;2.25;;;23.60;26.30;;;;;;4980916;28;45539;-79
2023/12/17 12:11:19;;;;;;;2.47;2.25;;;23.60;26.30;;;;;;4979353;28;45468;-80
2023/12/17 12:13:48;;;;;;;3.00;2.17;;;23.60;26.30;;;;;;4968470;28;45247;-79
2023/12/17 12:16:14;;;;;;;2.83;2.33;;;23.60;26.30;;;;;;4937297;28;46474;-79
2023/12/17 12:18:43;;;;;;;2.40;2.20;;;23.60;26.40;;;;;;4943893;28;45309;-80
2023/12/17 12:21:24;;;;;;;3.20;2.80;;;23.60;26.30;;;;;;4929052;28;44948;-79
2023/12/17 12:23:54;;;;;;;3.05;2.60;;;23.60;26.40;;;;;;4942503;28;45248;-81
2023/12/17 12:26:21;;;;;;;3.40;2.40;;;23.60;26.40;;;;;;4927532;28;47155;-82
2023/12/17 12:28:57;;;;;;;2.58;2.38;;;23.60;26.90;;;;;;4950477;28;45434;-83
2023/12/17 12:31:24;;;;;;;4.03;2.30;;;23.60;26.40;;;;;;4948038;28;45044;-82
2023/12/17 12:33:56;;;;;;;3.03;2.30;;;23.60;26.40;;;;;;4929568;28;45413;-81
2023/12/17 12:36:22;;;;;;;3.40;2.20;;;23.60;26.50;;;;;;4948254;28;45629;-82
2023/12/17 12:39:01;;;;;;;2.40;2.20;;;23.60;26.50;;;;;;4949682;28;45098;-82
2023/12/17 12:41:27;;;;;;;2.60;2.10;;;23.50;26.50;;;;;;4945456;28;45303;-82
2023/12/17 12:43:53;;;;;;;3.20;2.33;;;23.60;26.50;;;;;;4934103;28;44755;-81
2023/12/17 12:46:19;;;;;;;3.25;2.20;;;23.50;26.50;;;;;;4929533;28;46940;-80
2023/12/17 12:48:44;;;;;;;3.00;2.22;;;23.50;26.50;;;;;;4942397;28;45607;-80
2023/12/17 12:51:10;;;;;;;3.35;2.42;;;23.50;26.50;;;;;;4947033;28;45297;-81
2023/12/17 12:53:36;;;;;;;2.40;2.20;;;23.50;26.50;;;;;;4944738;28;45482;-80
2023/12/17 12:56:02;;;;;;;2.50;2.30;;;23.50;26.50;;;;;;4946327;28;45544;-81
2023/12/17 12:58:30;;;;;;;2.40;2.20;;;23.50;26.60;;;;;;4935327;28;45384;-81
2023/12/17 13:00:56;;;;;;;2.30;2.03;;;23.50;26.60;;;;;;4931589;28;44687;-80
2023/12/17 13:03:21;;;;;;;2.40;2.20;;;23.50;26.60;;;;;;4931532;28;45043;-80
2023/12/17 13:05:47;;;;;;;2.77;2.10;;;23.50;26.60;;;;;;4945914;28;46618;-80
2023/12/17 13:08:13;;;;;;;2.70;2.20;;;23.50;26.60;;;;;;4951339;28;45600;-81
2023/12/17 13:10:38;;;;;;;2.20;2.00;;;23.50;26.60;;;;;;4947952;28;45616;-82
2023/12/17 13:13:04;;;;;;;2.67;2.40;;;23.50;26.70;;;;;;4947194;28;45145;-80
2023/12/17 13:15:30;;;;;;;2.60;2.15;;;23.50;26.70;;;;;;4950948;28;45339;-82
2023/12/17 13:17:55;;;;;;;2.28;1.95;;;23.50;26.70;;;;;;4976023;28;45461;-83
2023/12/17 13:20:21;;;;;;;2.78;2.28;;;23.50;26.70;;;;;;4947937;28;44859;-81
2023/12/17 13:22:47;;;;;;;2.87;2.33;;;23.50;26.70;;;;;;4971555;28;45204;-81
2023/12/17 13:25:13;;;;;;;2.60;2.27;;;23.50;26.70;;;;;;4946425;28;45332;-79
2023/12/17 13:27:38;;;;;;;3.00;2.50;;;23.50;26.70;;;;;;4935767;28;44667;-80
2023/12/17 13:30:10;;;;;;;3.58;2.47;;;23.50;26.70;;;;;;4930608;28;44747;-81
2023/12/17 13:32:36;;;;;;;2.60;2.20;;;23.50;26.80;;;;;;4934435;28;45466;-81
2023/12/17 13:35:05;;;;;;;2.73;2.40;;;23.50;26.80;;;;;;4948541;28;46911;-80
2023/12/17 13:37:31;;;;;;;2.50;2.30;;;23.40;26.80;;;;;;4952993;28;45457;-81
2023/12/17 13:39:57;;;;;;;2.30;2.10;;;23.40;26.80;;;;;;4932129;28;44823;-80
2023/12/17 13:42:23;;;;;;;2.42;2.17;;;23.50;26.80;;;;;;4925915;28;45370;-81
2023/12/17 13:44:48;;;;;;;2.75;2.50;;;23.50;26.80;;;;;;4970426;28;45474;-80
2023/12/17 13:47:20;;;;;;;2.58;2.10;;;23.50;26.80;;;;;;4933588;28;44708;-83
2023/12/17 13:49:46;;;;;;;3.28;2.50;;;23.40;26.80;;;;;;4949064;28;45154;-82
2023/12/17 13:52:12;;;;;;;2.60;2.40;;;23.50;26.90;;;;;;4921727;28;45418;-80
2023/12/17 13:54:37;;;;;;;2.83;2.47;;;23.50;26.90;;;;;;4930691;28;46762;-81
2023/12/17 13:57:03;;;;;;;3.00;2.37;;;23.50;26.90;;;;;;4944410;28;44861;-81
2023/12/17 13:59:29;;;;;;;2.40;2.20;;;23.40;26.90;;;;;;4947855;28;45455;-79
2023/12/17 14:01:54;;;;;;;2.70;2.28;;;23.40;26.90;;;;;;4949156;28;45730;-83
2023/12/17 14:04:20;;;;;;;2.42;2.22;;;23.40;26.90;;;;;;4943997;28;46772;-82
2023/12/17 14:06:48;;;;;;;3.22;2.40;;;23.40;26.90;;;;;;4944946;28;44958;-83
2023/12/17 14:09:14;;;;;;;3.28;2.30;;;23.40;27.00;;;;;;4943977;28;44911;-83
2023/12/17 14:11:41;;;;;;;3.33;2.53;;;23.40;27.00;;;;;;4948310;28;45213;-82
2023/12/17 14:14:07;;;;;;;11.57;3.38;;;23.40;27.00;;;;;;4926091;28;47042;-81
2023/12/17 14:16:37;;;;;;;4.78;3.05;;;23.30;27.20;;;;;;4964153;28;45324;-82
2023/12/17 14:19:03;;;;;;;5.83;3.13;;;23.30;27.20;;;;;;4945727;28;45207;-83
2023/12/17 14:21:29;;;;;;;6.10;2.97;;;23.30;27.20;;;;;;4951179;28;44796;-83
2023/12/17 14:23:55;;;;;;;5.50;2.77;;;23.30;27.20;;;;;;4936837;28;45354;-83
2023/12/17 14:26:21;;;;;;;5.10;2.50;;;23.30;27.20;;;;;;4971058;28;45287;-82
2023/12/17 14:28:50;;;;;;;3.00;2.50;;;23.30;27.20;;;;;;4935667;28;45245;-82
2023/12/17 14:31:16;;;;;;;4.13;2.30;;;23.30;27.20;;;;;;4962075;28;45219;-83
2023/12/17 14:33:41;;;;;;;3.85;2.65;;;23.30;27.20;;;;;;4953550;28;45687;-83
2023/12/17 14:36:07;;;;;;;6.23;2.57;;;23.30;27.20;;;;;;4923154;28;44744;-81
2023/12/17 14:38:35;;;;;;;4.07;2.63;;;23.30;27.20;;;;;;4970260;28;44961;-80
2023/12/17 14:41:00;;;;;;;3.63;2.30;;;23.30;27.20;;;;;;4936293;28;45354;-80
2023/12/17 14:43:26;;;;;;;2.70;2.40;;;23.30;27.20;;;;;;4950215;28;47394;-81
2023/12/17 14:45:52;;;;;;;4.00;2.43;;;23.30;27.20;;;;;;4964243;28;45228;-83
2023/12/17 14:48:18;;;;;;;5.60;2.60;;;23.30;27.70;;;;;;4948072;28;45055;-82
2023/12/17 14:50:45;;;;;;;2.95;2.40;;;23.30;27.20;;;;;;4952926;28;45248;-80
2023/12/17 14:53:11;;;;;;;3.60;2.60;;;23.30;27.20;;;;;;4949249;28;45524;-83
2023/12/17 14:55:37;;;;;;;3.45;2.33;;;23.30;27.20;;;;;;4934175;28;45152;-82
2023/12/17 14:58:07;;;;;;;3.33;2.53;;;23.30;27.20;;;;;;4933206;28;45253;-82
2023/12/17 15:00:34;;;;;;;4.70;2.60;;;23.30;27.20;;;;;;4942956;28;45110;-83
2023/12/17 15:03:00;;;;;;;2.65;2.17;;;23.30;27.30;;;;;;4961632;28;47077;-82
2023/12/17 15:05:46;;;;;;;3.40;2.50;;;23.30;27.30;;;;;;4948593;28;45821;-84
2023/12/17 15:08:12;;;;;;;2.83;2.50;;;23.30;27.30;;;;;;4946301;28;45355;-83
2023/12/17 15:10:38;;;;;;;4.18;2.50;;;23.30;27.30;;;;;;4931685;28;45473;-82
2023/12/17 15:13:04;;;;;;;3.65;2.35;;;23.30;27.30;;;;;;4936935;28;45640;-82
2023/12/17 15:15:29;;;;;;;3.40;2.60;;;23.30;27.30;;;;;;4964022;28;44847;-84
2023/12/17 15:17:57;;;;;;;3.80;2.43;;;23.30;27.30;;;;;;4945309;28;45184;-83
2023/12/17 15:20:23;;;;;;;2.73;2.43;;;23.20;27.30;;;;;;4932943;28;44839;-83
2023/12/17 15:22:50;;;;;;;4.57;2.70;;;23.30;27.40;;;;;;4913535;28;47330;-83
2023/12/17 15:25:16;;;;;;;3.25;2.90;;;23.20;27.40;;;;;;4930186;28;45338;-82
2023/12/17 15:27:41;;;;;;;3.20;2.60;;;23.20;27.40;;;;;;4944212;28;44829;-81
2023/12/17 15:30:12;;;;;;;3.13;2.70;;;23.20;27.40;;;;;;4962364;28;45002;-80
2023/12/17 15:32:37;;;;;;;2.83;2.55;;;23.20;27.40;;;;;;4962026;28;45381;-80
2023/12/17 15:35:07;;;;;;;3.28;2.88;;;23.10;27.40;;;;;;4944599;28;44877;-80
2023/12/17 15:37:33;;;;;;;3.88;2.92;;;23.20;27.50;;;;;;4929951;28;45544;-82
2023/12/17 15:39:58;;;;;;;3.53;2.77;;;23.20;27.50;;;;;;4944701;28;44839;-81
2023/12/17 15:42:24;;;;;;;2.97;2.60;;;23.10;27.40;;;;;;4937878;28;47040;-81
2023/12/17 15:44:50;;;;;;;3.17;2.88;;;23.10;27.50;;;;;;4926484;28;44659;-81
2023/12/17 15:47:16;;;;;;;3.30;3.00;;;23.20;27.50;;;;;;4923784;28;44972;-80
2023/12/17 15:49:42;;;;;;;3.77;3.10;;;23.20;27.50;;;;;;4956375;28;45060;-80
2023/12/17 15:52:08;;;;;;;3.30;3.00;;;23.20;27.50;;;;;;4920312;28;46747;-81
2023/12/17 15:54:34;;;;;;;3.17;2.88;;;23.20;27.50;;;;;;4957503;28;45194;-80
2023/12/17 15:56:59;;;;;;;4.00;3.10;;;23.20;27.60;;;;;;4956799;28;45483;-81
2023/12/17 15:59:25;;;;;;;3.80;3.00;;;23.20;27.60;;;;;;4925072;28;44856;-82
2023/12/17 16:01:50;;;;;;;4.30;3.03;;;23.20;27.60;;;;;;4959720;28;46393;-82
2023/12/17 16:04:17;;;;;;;3.27;2.97;;;23.20;27.60;;;;;;4945541;28;45221;-83
2023/12/17 16:06:42;;;;;;;3.30;3.00;;;23.20;27.60;;;;;;4927854;28;45489;-83
2023/12/17 16:09:08;;;;;;;4.00;3.10;;;23.20;27.60;;;;;;4949806;28;45805;-83
2023/12/17 16:11:37;;;;;;;4.60;2.93;;;23.20;27.60;;;;;;4949390;28;45420;-84
2023/12/17 16:14:03;;;;;;;3.55;3.03;;;23.30;27.60;;;;;;4946574;28;44809;-83
2023/12/17 16:16:29;;;;;;;3.30;3.00;;;23.30;27.60;;;;;;4938114;28;45463;-84
2023/12/17 16:18:54;;;;;;;3.50;3.00;;;23.30;27.60;;;;;;4949011;28;45204;-83
2023/12/17 16:21:20;;;;;;;3.20;2.90;;;23.30;27.60;;;;;;4914778;28;45174;-82
2023/12/17 16:23:46;;;;;;;4.37;3.10;;;23.30;27.60;;;;;;4966001;28;45173;-83
2023/12/17 16:26:11;;;;;;;3.63;3.07;;;23.30;27.50;;;;;;4932556;28;45227;-82
2023/12/17 16:28:37;;;;;;;3.73;3.23;;;23.30;27.60;;;;;;4941995;28;45239;-81
2023/12/17 16:31:03;;;;;;;3.33;3.03;;;23.30;28.00;;;;;;4928728;28;47097;-83
2023/12/17 16:33:28;;;;;;;4.00;3.20;;;23.30;27.50;;;;;;4924809;28;45132;-82
2023/12/17 16:35:54;;;;;;;3.90;3.28;;;23.30;27.50;;;;;;4935775;28;44663;-85
2023/12/17 16:38:20;;;;;;;4.93;3.50;;;23.40;27.50;;;;;;4920837;28;45391;-83
2023/12/17 16:40:46;;;;;;;6.20;3.87;;;23.40;27.50;;;;;;4936147;28;46969;-83
2023/12/17 16:43:12;;;;;;;5.53;3.90;;;23.40;27.50;;;;;;4922280;28;44672;-83
2023/12/17 16:45:38;;;;;;;6.00;3.97;;;23.40;27.50;;;;;;4953982;28;45455;-81
2023/12/17 16:48:05;;;;;;;4.47;4.00;;;23.40;27.50;;;;;;4934639;28;45203;-81
2023/12/17 16:50:31;;;;;;;5.70;4.20;;;23.40;27.50;;;;;;4931660;28;47368;-81
2023/12/17 16:52:57;;;;;;;4.75;4.00;;;23.50;27.50;;;;;;4966180;28;45207;-82
2023/12/17 16:55:23;;;;;;;6.38;4.40;;;23.50;27.50;;;;;;4947752;28;45268;-82
2023/12/17 16:57:52;;;;;;;5.03;3.80;;;23.50;27.50;;;;;;4952635;28;45203;-80
2023/12/17 17:00:21;;;;;;;4.93;4.13;;;23.50;27.50;;;;;;4962809;28;45452;-81
2023/12/17 17:02:47;;;;;;;4.63;4.03;;;23.50;27.50;;;;;;4940935;28;45316;-81
2023/12/17 17:05:13;;;;;;;5.45;3.85;;;23.50;27.40;;;;;;4931457;28;45436;-84
2023/12/17 17:07:38;;;;;;;4.80;4.30;;;23.60;27.50;;;;;;4928506;28;44830;-84
2023/12/17 17:10:08;;;;;;;5.27;3.87;;;23.60;27.40;;;;;;4947111;28;47000;-84
2023/12/17 17:12:34;;;;;;;5.22;3.72;;;23.60;27.40;;;;;;4915400;28;45156;-82